sensor_id;sensor_type;location;lat;lon;timestamp;pressure;altitude;pressure_sealevel;temperature;humidity
70943;BME280;59154;51.970;5.650;2023-05-29T02:20:03;102300;;;19.95575;58.6
70943;BME280;59154;51.970;5.650;2023-05-29T02:25:03;102300;;;19.88963;56.6
70943;BME280;59154;51.970;5.650;2023-05-29T03:05:03;102300;;;19.7879;58.2
70943;BME280;59154;51.970;5.650;2023-05-29T03:30:08;102300;;;19.21826;56.5
70943;BME280;59154;51.970;5.650;2023-05-29T05:45:42;102400;;;19.53869;55.7
70943;BME280;59154;51.970;5.650;2023-05-29T05:50:04;102400;;;19.62006;53.6
70943;BME280;59154;51.970;5.650;2023-05-29T05:55:03;102400;;;19.70144;55.7
70943;BME280;59154;51.970;5.650;2023-05-29T06:30:11;102400;;;19.04025;52.9
70943;BME280;59154;51.970;5.650;2023-05-29T06:50:03;102400;;;19.93032;54.1
70943;BME280;59154;51.970;5.650;2023-05-29T07:00:03;102400;;;20.43384;54.0
70943;BME280;59154;51.970;5.650;2023-05-29T07:05:03;102400;;;20.31178;52.6
70943;BME280;59154;51.970;5.650;2023-05-29T07:10:15;102400;;;20.37281;53.6
70943;BME280;59154;51.970;5.650;2023-05-29T07:20:04;102400;;;19.93032;52.4
70943;BME280;59154;51.970;5.650;2023-05-29T07:25:03;102400;;;20.70341;51.4
70943;BME280;59154;51.970;5.650;2023-05-29T07:30:03;102400;;;20.81022;52.1
70943;BME280;59154;51.970;5.650;2023-05-29T07:35:02;102400;;;20.33212;50.0
70943;BME280;59154;51.970;5.650;2023-05-29T07:40:04;102400;;;20.0473;51.0
70943;BME280;59154;51.970;5.650;2023-05-29T07:45:02;102400;;;20.87634;53.9
70943;BME280;59154;51.970;5.650;2023-05-29T09:05:02;102500;;;21.741;49.5
70943;BME280;59154;51.970;5.650;2023-05-29T09:10:04;102500;;;21.61893;48.9
70943;BME280;59154;51.970;5.650;2023-05-29T09:30:03;102500;;;21.57315;47.8
70943;BME280;59154;51.970;5.650;2023-05-29T09:35:03;102500;;;21.55281;48.5
70943;BME280;59154;51.970;5.650;2023-05-29T09:40:06;102500;;;21.85798;48.2
70943;BME280;59154;51.970;5.650;2023-05-29T09:45:03;102500;;;21.58332;48.4
70943;BME280;59154;51.970;5.650;2023-05-29T09:50:03;102400;;;21.76643;48.6
70943;BME280;59154;51.970;5.650;2023-05-29T09:55:02;102400;;;21.69522;47.7
70943;BME280;59154;51.970;5.650;2023-05-29T10:00:03;102400;;;21.84272;48.3
70943;BME280;59154;51.970;5.650;2023-05-29T10:05:03;102400;;;21.86307;47.4
70943;BME280;59154;51.970;5.650;2023-05-29T10:10:04;102400;;;22.32083;48.0
70943;BME280;59154;51.970;5.650;2023-05-29T10:25:03;102400;;;22.35643;46.8
70943;BME280;59154;51.970;5.650;2023-05-29T10:30:09;102400;;;22.46325;45.9
70943;BME280;59154;51.970;5.650;2023-05-29T10:35:08;102400;;;22.38187;45.2
70943;BME280;59154;51.970;5.650;2023-05-29T10:40:05;102400;;;22.42256;46.4
70943;BME280;59154;51.970;5.650;2023-05-29T10:45:03;102400;;;22.49885;44.0
70943;BME280;59154;51.970;5.650;2023-05-29T10:50:04;102400;;;22.81929;45.7
70943;BME280;59154;51.970;5.650;2023-05-29T10:55:03;102400;;;22.85489;44.9
70943;BME280;59154;51.970;5.650;2023-05-29T11:00:05;102400;;;22.93119;46.5
70943;BME280;59154;51.970;5.650;2023-05-29T11:05:06;102400;;;23.00748;44.2
70943;BME280;59154;51.970;5.650;2023-05-29T11:10:11;102400;;;22.90067;42.9
70943;BME280;59154;51.970;5.650;2023-05-29T11:20:05;102400;;;22.97696;44.1
70943;BME280;59154;51.970;5.650;2023-05-29T11:25:04;102400;;;22.93627;43.2
70943;BME280;59154;51.970;5.650;2023-05-29T11:30:04;102400;;;22.9261;42.6
70943;BME280;59154;51.970;5.650;2023-05-29T11:35:07;102400;;;22.97696;43.6
70943;BME280;59154;51.970;5.650;2023-05-29T11:40:04;102400;;;23.07869;43.3
70943;BME280;59154;51.970;5.650;2023-05-29T11:45:11;102400;;;23.19567;43.9
70943;BME280;59154;51.970;5.650;2023-05-29T11:50:18;102400;;;22.86506;41.7
70943;BME280;59154;51.970;5.650;2023-05-29T11:55:06;102400;;;23.18041;43.5
70943;BME280;59154;51.970;5.650;2023-05-29T12:00:05;102400;;;23.23636;42.6
70943;BME280;59154;51.970;5.650;2023-05-29T12:05:03;102400;;;23.41947;42.9
70943;BME280;59154;51.970;5.650;2023-05-29T12:10:10;102400;;;23.42964;43.1
70943;BME280;59154;51.970;5.650;2023-05-29T12:15:03;102400;;;23.39404;41.5
70943;BME280;59154;51.970;5.650;2023-05-29T12:20:04;102400;;;23.17024;41.3
70943;BME280;59154;51.970;5.650;2023-05-29T12:25:06;102400;;;23.55172;42.3
70943;BME280;59154;51.970;5.650;2023-05-29T12:30:04;102400;;;23.57206;42.6
70943;BME280;59154;51.970;5.650;2023-05-29T12:35:11;102400;;;23.53646;42.5
70943;BME280;59154;51.970;5.650;2023-05-29T12:40:13;102400;;;23.45508;40.8
70943;BME280;59154;51.970;5.650;2023-05-29T12:45:03;102400;;;23.39913;39.9
70943;BME280;59154;51.970;5.650;2023-05-29T12:50:19;102400;;;23.52628;42.0
70943;BME280;59154;51.970;5.650;2023-05-29T12:55:02;102400;;;23.54663;40.7
70943;BME280;59154;51.970;5.650;2023-05-29T13:00:04;102400;;;23.48559;41.3
70943;BME280;59154;51.970;5.650;2023-05-29T13:05:03;102400;;;23.49577;40.7
70943;BME280;59154;51.970;5.650;2023-05-29T13:10:03;102400;;;23.70939;40.2
70943;BME280;59154;51.970;5.650;2023-05-29T13:40:05;102400;;;23.47033;38.3
70943;BME280;59154;51.970;5.650;2023-05-29T13:45:03;102400;;;23.77043;40.1
70943;BME280;59154;51.970;5.650;2023-05-29T13:50:04;102400;;;23.80095;37.9
70943;BME280;59154;51.970;5.650;2023-05-29T13:55:02;102400;;;23.58732;39.1
70943;BME280;59154;51.970;5.650;2023-05-29T14:00:04;102400;;;23.82638;40.0
70943;BME280;59154;51.970;5.650;2023-05-29T17:00:04;102400;;;23.38387;38.5
70943;BME280;59154;51.970;5.650;2023-05-29T17:05:02;102400;;;23.50085;37.9
70943;BME280;59154;51.970;5.650;2023-05-29T17:10:03;102400;;;23.65853;37.1
70943;BME280;59154;51.970;5.650;2023-05-29T17:20:04;102400;;;23.86198;36.7
70943;BME280;59154;51.970;5.650;2023-05-29T17:25:02;102400;;;24.01457;36.9
70943;BME280;59154;51.970;5.650;2023-05-29T17:30:04;102400;;;24.1926;36.5
70943;BME280;59154;51.970;5.650;2023-05-29T17:35:03;102400;;;24.22312;37.8
70943;BME280;59154;51.970;5.650;2023-05-29T17:40:04;102400;;;24.24346;37.6
70943;BME280;59154;51.970;5.650;2023-05-29T17:45:03;102400;;;26.19157;36.2
70943;BME280;59154;51.970;5.650;2023-05-29T17:50:03;102400;;;25.99319;37.1
70943;BME280;59154;51.970;5.650;2023-05-29T17:55:03;102400;;;25.89655;37.8
70943;BME280;59154;51.970;5.650;2023-05-29T18:00:04;102400;;;25.59136;38.2
70943;BME280;59154;51.970;5.650;2023-05-29T18:05:02;102400;;;25.17936;38.6
70943;BME280;59154;51.970;5.650;2023-05-29T18:10:04;102400;;;25.10815;38.8
70943;BME280;59154;51.970;5.650;2023-05-29T18:35:03;102400;;;24.80805;40.3
70943;BME280;59154;51.970;5.650;2023-05-29T18:40:03;102400;;;24.66563;40.0
70943;BME280;59154;51.970;5.650;2023-05-29T18:45:02;102400;;;24.68598;40.1
70943;BME280;59154;51.970;5.650;2023-05-29T18:50:03;102400;;;24.26381;39.9
70943;BME280;59154;51.970;5.650;2023-05-29T18:55:03;102400;;;24.21294;39.2
70943;BME280;59154;51.970;5.650;2023-05-29T19:00:05;102400;;;24.13665;40.2
70943;BME280;59154;51.970;5.650;2023-05-29T19:05:03;102400;;;24.1163;39.1
70943;BME280;59154;51.970;5.650;2023-05-29T19:10:03;102400;;;23.87724;40.3
70943;BME280;59154;51.970;5.650;2023-05-29T19:15:02;102400;;;23.67379;40.0
70943;BME280;59154;51.970;5.650;2023-05-29T19:20:03;102400;;;23.33809;40.9
70943;BME280;59154;51.970;5.650;2023-05-29T19:25:03;102400;;;23.10412;40.2
70943;BME280;59154;51.970;5.650;2023-05-29T19:30:03;102400;;;23.05834;41.0
70943;BME280;59154;51.970;5.650;2023-05-29T19:35:03;102400;;;22.90067;41.4
70943;BME280;59154;51.970;5.650;2023-05-29T19:40:03;102400;;;22.96679;41.8
70943;BME280;59154;51.970;5.650;2023-05-29T19:45:02;102500;;;22.80911;42.0
70943;BME280;59154;51.970;5.650;2023-05-29T19:50:03;102500;;;22.1835;42.3
70943;BME280;59154;51.970;5.650;2023-05-29T19:55:03;102500;;;22.15298;42.4
70943;BME280;59154;51.970;5.650;2023-05-29T20:00:04;102500;;;22.1479;43.2
70943;BME280;59154;51.970;5.650;2023-05-29T20:05:02;102500;;;21.8529;43.2
70943;BME280;59154;51.970;5.650;2023-05-29T20:10:03;102500;;;22.10212;45.0
70943;BME280;59154;51.970;5.650;2023-05-29T20:25:03;102500;;;21.67488;44.9
70943;BME280;59154;51.970;5.650;2023-05-29T20:30:03;102500;;;21.7766;44.5
70943;BME280;59154;51.970;5.650;2023-05-29T20:35:03;102500;;;21.50703;45.1
70943;BME280;59154;51.970;5.650;2023-05-29T20:40:04;102500;;;21.6291;45.1
70943;BME280;59154;51.970;5.650;2023-05-29T20:45:02;102500;;;21.43074;46.2
70943;BME280;59154;51.970;5.650;2023-05-29T20:50:03;102500;;;21.44091;45.7
70943;BME280;59154;51.970;5.650;2023-05-29T20:55:03;102500;;;21.19677;44.7
70943;BME280;59154;51.970;5.650;2023-05-29T21:00:04;102500;;;21.10522;45.6
70943;BME280;59154;51.970;5.650;2023-05-29T21:05:03;102500;;;21.19169;46.5
70943;BME280;59154;51.970;5.650;2023-05-29T21:10:03;102500;;;20.94246;45.5
70943;BME280;59154;51.970;5.650;2023-05-29T21:25:02;102500;;;20.85091;47.2
70943;BME280;59154;51.970;5.650;2023-05-29T21:30:04;102500;;;20.38298;47.6
70943;BME280;59154;51.970;5.650;2023-05-29T21:35:02;102500;;;20.61186;48.4
70943;BME280;59154;51.970;5.650;2023-05-29T21:40:03;102500;;;20.24566;48.1
70943;BME280;59154;51.970;5.650;2023-05-29T21:45:03;102500;;;20.58134;48.4
70943;BME280;59154;51.970;5.650;2023-05-29T22:25:03;102600;;;19.83368;51.4
70943;BME280;59154;51.970;5.650;2023-05-29T22:30:02;102600;;;19.9354;51.5
70943;BME280;59154;51.970;5.650;2023-05-29T22:35:03;102600;;;19.87946;51.3
